sensor_id;sensor_type;location;lat;lon;timestamp;pressure;altitude;pressure_sealevel;temperature;humidity
73918;BME280;63639;52.280;5.162;2023-01-25T00:00:29;103931.37;;;7.58;56.59
73918;BME280;63639;52.280;5.162;2023-01-25T00:02:56;103929.47;;;7.64;55.21
73918;BME280;63639;52.280;5.162;2023-01-25T00:05:23;103927.71;;;7.54;55.29
73918;BME280;63639;52.280;5.162;2023-01-25T00:07:50;103926.22;;;7.32;56.05
73918;BME280;63639;52.280;5.162;2023-01-25T00:10:18;103920.08;;;7.27;57.01
73918;BME280;63639;52.280;5.162;2023-01-25T00:12:45;103917.29;;;7.30;57.22
73918;BME280;63639;52.280;5.162;2023-01-25T00:15:12;103914.20;;;7.37;57.21
73918;BME280;63639;52.280;5.162;2023-01-25T00:17:38;103911.74;;;7.47;56.12
73918;BME280;63639;52.280;5.162;2023-01-25T00:20:07;103907.78;;;7.49;56.63
73918;BME280;63639;52.280;5.162;2023-01-25T00:22:35;103909.24;;;7.54;56.69
73918;BME280;63639;52.280;5.162;2023-01-25T00:25:01;103908.64;;;7.43;55.54
73918;BME280;63639;52.280;5.162;2023-01-25T00:27:28;103907.70;;;7.06;56.24
73918;BME280;63639;52.280;5.162;2023-01-25T00:29:54;103904.02;;;6.87;56.73
73918;BME280;63639;52.280;5.162;2023-01-25T00:32:45;103899.63;;;6.83;57.81
73918;BME280;63639;52.280;5.162;2023-01-25T00:35:12;103901.61;;;6.99;58.16
73918;BME280;63639;52.280;5.162;2023-01-25T00:37:42;103902.34;;;7.15;57.73
73918;BME280;63639;52.280;5.162;2023-01-25T00:40:11;103903.16;;;7.31;57.45
73918;BME280;63639;52.280;5.162;2023-01-25T00:42:38;103905.42;;;7.43;57.20
73918;BME280;63639;52.280;5.162;2023-01-25T00:45:06;103899.50;;;7.47;57.46
73918;BME280;63639;52.280;5.162;2023-01-25T00:47:33;103901.02;;;7.53;56.78
73918;BME280;63639;52.280;5.162;2023-01-25T00:50:00;103898.78;;;7.56;56.75
73918;BME280;63639;52.280;5.162;2023-01-25T00:52:26;103897.43;;;7.54;56.93
73918;BME280;63639;52.280;5.162;2023-01-25T00:54:53;103895.18;;;7.53;57.08
73918;BME280;63639;52.280;5.162;2023-01-25T00:57:20;103890.13;;;7.55;56.05
73918;BME280;63639;52.280;5.162;2023-01-25T00:59:47;103892.02;;;7.51;56.42
73918;BME280;63639;52.280;5.162;2023-01-25T01:02:14;103894.41;;;7.45;57.09
73918;BME280;63639;52.280;5.162;2023-01-25T01:04:41;103891.25;;;7.47;57.01
73918;BME280;63639;52.280;5.162;2023-01-25T01:07:10;103890.59;;;7.53;56.74
73918;BME280;63639;52.280;5.162;2023-01-25T01:09:38;103883.17;;;7.58;56.30
73918;BME280;63639;52.280;5.162;2023-01-25T01:12:04;103882.00;;;7.57;56.40
73918;BME280;63639;52.280;5.162;2023-01-25T01:14:31;103881.16;;;7.39;55.65
73918;BME280;63639;52.280;5.162;2023-01-25T01:16:57;103876.40;;;7.30;56.49
73918;BME280;63639;52.280;5.162;2023-01-25T01:19:24;103875.49;;;7.28;56.67
73918;BME280;63639;52.280;5.162;2023-01-25T01:21:50;103873.59;;;7.25;56.93
73918;BME280;63639;52.280;5.162;2023-01-25T01:24:17;103872.97;;;7.30;56.96
73918;BME280;63639;52.280;5.162;2023-01-25T01:26:44;103871.27;;;7.36;57.17
73918;BME280;63639;52.280;5.162;2023-01-25T01:29:11;103862.76;;;7.40;57.37
73918;BME280;63639;52.280;5.162;2023-01-25T01:31:38;103861.99;;;7.46;56.86
73918;BME280;63639;52.280;5.162;2023-01-25T01:34:04;103864.73;;;7.52;57.01
73918;BME280;63639;52.280;5.162;2023-01-25T01:36:31;103867.31;;;7.58;56.26
73918;BME280;63639;52.280;5.162;2023-01-25T01:38:58;103866.96;;;7.51;56.16
73918;BME280;63639;52.280;5.162;2023-01-25T01:41:25;103870.23;;;7.45;56.48
73918;BME280;63639;52.280;5.162;2023-01-25T01:43:53;103870.55;;;7.41;57.09
73918;BME280;63639;52.280;5.162;2023-01-25T01:46:24;103871.78;;;7.34;56.38
73918;BME280;63639;52.280;5.162;2023-01-25T01:48:55;103874.21;;;7.33;56.51
73918;BME280;63639;52.280;5.162;2023-01-25T01:51:30;103874.31;;;7.35;56.51
73918;BME280;63639;52.280;5.162;2023-01-25T01:54:04;103871.93;;;7.34;57.14
73918;BME280;63639;52.280;5.162;2023-01-25T01:56:35;103873.06;;;7.33;56.68
73918;BME280;63639;52.280;5.162;2023-01-25T01:59:04;103873.18;;;7.36;56.38
73918;BME280;63639;52.280;5.162;2023-01-25T02:01:32;103874.68;;;7.41;56.53
73918;BME280;63639;52.280;5.162;2023-01-25T02:04:01;103873.85;;;7.39;56.04
73918;BME280;63639;52.280;5.162;2023-01-25T02:06:33;103868.68;;;7.34;56.30
73918;BME280;63639;52.280;5.162;2023-01-25T02:09:03;103866.40;;;7.24;56.87
73918;BME280;63639;52.280;5.162;2023-01-25T02:11:31;103862.53;;;7.11;56.45
73918;BME280;63639;52.280;5.162;2023-01-25T02:13:59;103858.40;;;7.10;57.13
73918;BME280;63639;52.280;5.162;2023-01-25T02:16:28;103857.25;;;7.16;56.30
73918;BME280;63639;52.280;5.162;2023-01-25T02:18:57;103855.59;;;7.09;56.37
73918;BME280;63639;52.280;5.162;2023-01-25T02:21:25;103852.82;;;6.83;56.66
73918;BME280;63639;52.280;5.162;2023-01-25T02:23:54;103854.52;;;6.67;57.77
73918;BME280;63639;52.280;5.162;2023-01-25T02:26:24;103856.84;;;6.78;58.21
73918;BME280;63639;52.280;5.162;2023-01-25T02:28:55;103853.05;;;6.72;57.00
73918;BME280;63639;52.280;5.162;2023-01-25T02:31:23;103848.35;;;6.24;58.52
73918;BME280;63639;52.280;5.162;2023-01-25T02:33:50;103846.87;;;5.99;59.51
73918;BME280;63639;52.280;5.162;2023-01-25T02:36:20;103848.62;;;5.77;60.35
73918;BME280;63639;52.280;5.162;2023-01-25T02:38:52;103839.37;;;5.81;61.25
73918;BME280;63639;52.280;5.162;2023-01-25T02:41:26;103839.25;;;5.97;59.88
73918;BME280;63639;52.280;5.162;2023-01-25T02:43:53;103835.10;;;5.77;60.65
73918;BME280;63639;52.280;5.162;2023-01-25T02:46:23;103831.55;;;5.87;60.54
73918;BME280;63639;52.280;5.162;2023-01-25T02:48:51;103830.00;;;6.00;60.50
73918;BME280;63639;52.280;5.162;2023-01-25T02:51:17;103830.23;;;6.11;59.86
73918;BME280;63639;52.280;5.162;2023-01-25T02:53:44;103829.47;;;6.22;59.35
73918;BME280;63639;52.280;5.162;2023-01-25T02:56:12;103823.69;;;6.16;59.62
73918;BME280;63639;52.280;5.162;2023-01-25T02:58:39;103820.50;;;6.34;59.34
73918;BME280;63639;52.280;5.162;2023-01-25T03:01:06;103818.83;;;6.49;59.08
73918;BME280;63639;52.280;5.162;2023-01-25T03:03:32;103816.97;;;6.31;58.60
73918;BME280;63639;52.280;5.162;2023-01-25T03:05:59;103816.61;;;6.17;58.82
73918;BME280;63639;52.280;5.162;2023-01-25T03:08:26;103815.15;;;6.27;58.40
73918;BME280;63639;52.280;5.162;2023-01-25T03:10:55;103814.56;;;6.42;59.20
73918;BME280;63639;52.280;5.162;2023-01-25T03:13:23;103816.27;;;6.39;58.00
73918;BME280;63639;52.280;5.162;2023-01-25T03:15:59;103814.89;;;6.23;58.94
73918;BME280;63639;52.280;5.162;2023-01-25T03:18:26;103816.98;;;6.33;58.92
73918;BME280;63639;52.280;5.162;2023-01-25T03:20:52;103815.44;;;6.42;58.12
73918;BME280;63639;52.280;5.162;2023-01-25T03:23:20;103813.38;;;6.40;58.22
73918;BME280;63639;52.280;5.162;2023-01-25T03:25:47;103809.51;;;6.49;58.30
73918;BME280;63639;52.280;5.162;2023-01-25T03:28:14;103805.95;;;6.62;58.39
73918;BME280;63639;52.280;5.162;2023-01-25T03:30:41;103801.81;;;6.73;57.18
73918;BME280;63639;52.280;5.162;2023-01-25T03:33:08;103800.41;;;6.61;57.32
73918;BME280;63639;52.280;5.162;2023-01-25T03:35:35;103793.29;;;6.52;57.74
73918;BME280;63639;52.280;5.162;2023-01-25T03:38:02;103790.50;;;5.96;58.37
73918;BME280;63639;52.280;5.162;2023-01-25T03:40:29;103787.62;;;5.68;59.47
73918;BME280;63639;52.280;5.162;2023-01-25T03:42:56;103786.48;;;5.69;60.34
73918;BME280;63639;52.280;5.162;2023-01-25T03:45:22;103781.09;;;5.76;59.93
73918;BME280;63639;52.280;5.162;2023-01-25T03:47:50;103778.94;;;5.45;60.57
73918;BME280;63639;52.280;5.162;2023-01-25T03:50:17;103782.72;;;5.05;61.95
73918;BME280;63639;52.280;5.162;2023-01-25T03:52:43;103783.52;;;5.04;61.90
73918;BME280;63639;52.280;5.162;2023-01-25T03:55:10;103780.12;;;5.06;62.56
73918;BME280;63639;52.280;5.162;2023-01-25T03:57:37;103778.92;;;5.28;61.87
73918;BME280;63639;52.280;5.162;2023-01-25T04:00:06;103777.05;;;5.48;61.87
73918;BME280;63639;52.280;5.162;2023-01-25T04:02:33;103779.48;;;5.74;60.07
73918;BME280;63639;52.280;5.162;2023-01-25T04:04:59;103776.80;;;5.85;59.70
73918;BME280;63639;52.280;5.162;2023-01-25T04:07:26;103775.75;;;5.95;59.50
73918;BME280;63639;52.280;5.162;2023-01-25T04:09:54;103778.34;;;6.05;59.71
73918;BME280;63639;52.280;5.162;2023-01-25T04:12:21;103781.39;;;6.04;58.81
73918;BME280;63639;52.280;5.162;2023-01-25T04:14:48;103778.05;;;6.13;58.17
73918;BME280;63639;52.280;5.162;2023-01-25T04:17:15;103771.85;;;6.13;58.66
73918;BME280;63639;52.280;5.162;2023-01-25T04:19:42;103766.73;;;6.24;58.62
73918;BME280;63639;52.280;5.162;2023-01-25T04:22:09;103762.11;;;6.26;58.21
73918;BME280;63639;52.280;5.162;2023-01-25T04:24:36;103760.15;;;6.27;58.94
73918;BME280;63639;52.280;5.162;2023-01-25T04:27:03;103762.45;;;6.27;58.52
73918;BME280;63639;52.280;5.162;2023-01-25T04:29:30;103760.25;;;6.21;58.16
73918;BME280;63639;52.280;5.162;2023-01-25T04:31:56;103758.58;;;6.12;57.86
73918;BME280;63639;52.280;5.162;2023-01-25T04:34:23;103757.68;;;6.16;58.54
73918;BME280;63639;52.280;5.162;2023-01-25T04:36:50;103756.31;;;6.08;58.80
73918;BME280;63639;52.280;5.162;2023-01-25T04:39:17;103752.16;;;6.06;59.96
73918;BME280;63639;52.280;5.162;2023-01-25T04:41:44;103750.16;;;6.12;59.27
73918;BME280;63639;52.280;5.162;2023-01-25T04:44:11;103746.86;;;6.16;58.38
73918;BME280;63639;52.280;5.162;2023-01-25T04:46:43;103745.35;;;6.24;58.43
73918;BME280;63639;52.280;5.162;2023-01-25T04:49:10;103739.14;;;6.26;58.66
73918;BME280;63639;52.280;5.162;2023-01-25T04:51:37;103736.68;;;6.24;58.39
73918;BME280;63639;52.280;5.162;2023-01-25T04:54:04;103735.79;;;6.06;58.72
73918;BME280;63639;52.280;5.162;2023-01-25T04:56:31;103732.23;;;5.89;58.95
73918;BME280;63639;52.280;5.162;2023-01-25T04:58:57;103732.15;;;5.88;59.71
73918;BME280;63639;52.280;5.162;2023-01-25T05:01:24;103735.02;;;5.91;59.69
73918;BME280;63639;52.280;5.162;2023-01-25T05:03:51;103728.32;;;5.94;58.78
73918;BME280;63639;52.280;5.162;2023-01-25T05:06:18;103731.93;;;5.80;58.65
73918;BME280;63639;52.280;5.162;2023-01-25T05:08:45;103733.14;;;5.25;60.25
73918;BME280;63639;52.280;5.162;2023-01-25T05:11:11;103732.59;;;4.95;61.87
73918;BME280;63639;52.280;5.162;2023-01-25T05:13:38;103730.55;;;4.81;62.09
73918;BME280;63639;52.280;5.162;2023-01-25T05:16:05;103727.35;;;4.71;62.99
73918;BME280;63639;52.280;5.162;2023-01-25T05:18:33;103726.71;;;4.95;62.17
73918;BME280;63639;52.280;5.162;2023-01-25T05:21:00;103726.59;;;5.05;61.75
73918;BME280;63639;52.280;5.162;2023-01-25T05:23:27;103725.56;;;5.11;62.07
73918;BME280;63639;52.280;5.162;2023-01-25T05:25:54;103726.68;;;5.22;61.52
73918;BME280;63639;52.280;5.162;2023-01-25T05:28:21;103734.48;;;5.04;61.70
73918;BME280;63639;52.280;5.162;2023-01-25T05:30:48;103731.41;;;5.11;62.29
73918;BME280;63639;52.280;5.162;2023-01-25T05:33:15;103730.49;;;5.33;61.49
73918;BME280;63639;52.280;5.162;2023-01-25T05:35:42;103734.79;;;5.57;60.39
73918;BME280;63639;52.280;5.162;2023-01-25T05:38:09;103729.95;;;5.63;60.75
73918;BME280;63639;52.280;5.162;2023-01-25T05:40:35;103728.77;;;5.76;59.97
73918;BME280;63639;52.280;5.162;2023-01-25T05:43:03;103735.41;;;5.19;60.69
73918;BME280;63639;52.280;5.162;2023-01-25T05:45:30;103733.41;;;5.24;60.62
73918;BME280;63639;52.280;5.162;2023-01-25T05:47:57;103730.43;;;5.26;60.83
73918;BME280;63639;52.280;5.162;2023-01-25T05:50:25;103727.19;;;5.34;60.99
73918;BME280;63639;52.280;5.162;2023-01-25T05:52:52;103723.47;;;5.48;60.42
73918;BME280;63639;52.280;5.162;2023-01-25T05:55:19;103723.01;;;5.39;60.14
73918;BME280;63639;52.280;5.162;2023-01-25T05:57:46;103728.92;;;5.25;60.94
73918;BME280;63639;52.280;5.162;2023-01-25T06:00:13;103729.93;;;5.37;61.13
73918;BME280;63639;52.280;5.162;2023-01-25T06:02:40;103725.82;;;5.51;60.92
73918;BME280;63639;52.280;5.162;2023-01-25T06:05:08;103725.06;;;5.59;59.58
73918;BME280;63639;52.280;5.162;2023-01-25T06:07:35;103722.62;;;5.50;60.55
73918;BME280;63639;52.280;5.162;2023-01-25T06:10:02;103724.08;;;5.58;59.91
73918;BME280;63639;52.280;5.162;2023-01-25T06:12:29;103730.02;;;5.54;60.93
73918;BME280;63639;52.280;5.162;2023-01-25T06:14:56;103734.19;;;5.71;59.99
73918;BME280;63639;52.280;5.162;2023-01-25T06:17:23;103735.27;;;5.82;59.38
73918;BME280;63639;52.280;5.162;2023-01-25T06:19:50;103734.78;;;5.65;59.73
73918;BME280;63639;52.280;5.162;2023-01-25T06:22:16;103734.50;;;5.57;60.45
73918;BME280;63639;52.280;5.162;2023-01-25T06:24:44;103736.32;;;5.72;60.90
73918;BME280;63639;52.280;5.162;2023-01-25T06:27:11;103735.63;;;5.94;60.01
73918;BME280;63639;52.280;5.162;2023-01-25T06:29:38;103732.88;;;6.15;59.58
73918;BME280;63639;52.280;5.162;2023-01-25T06:32:04;103730.28;;;6.30;59.08
73918;BME280;63639;52.280;5.162;2023-01-25T06:34:31;103727.21;;;6.44;59.12
73918;BME280;63639;52.280;5.162;2023-01-25T06:36:57;103724.19;;;6.50;58.47
73918;BME280;63639;52.280;5.162;2023-01-25T06:39:24;103724.19;;;6.52;58.38
73918;BME280;63639;52.280;5.162;2023-01-25T06:41:52;103726.89;;;6.48;58.60
73918;BME280;63639;52.280;5.162;2023-01-25T06:44:18;103730.11;;;6.46;58.62
73918;BME280;63639;52.280;5.162;2023-01-25T06:46:46;103728.62;;;6.46;58.72
73918;BME280;63639;52.280;5.162;2023-01-25T06:49:14;103725.48;;;6.49;58.14
73918;BME280;63639;52.280;5.162;2023-01-25T06:51:41;103727.94;;;6.38;58.75
73918;BME280;63639;52.280;5.162;2023-01-25T06:54:08;103728.92;;;6.30;58.67
73918;BME280;63639;52.280;5.162;2023-01-25T06:56:35;103723.64;;;5.87;59.15
73918;BME280;63639;52.280;5.162;2023-01-25T06:59:02;103719.44;;;5.54;60.65
73918;BME280;63639;52.280;5.162;2023-01-25T07:01:29;103712.24;;;5.03;62.17
73918;BME280;63639;52.280;5.162;2023-01-25T07:03:57;103709.78;;;5.11;62.67
73918;BME280;63639;52.280;5.162;2023-01-25T07:06:25;103706.73;;;5.25;61.31
73918;BME280;63639;52.280;5.162;2023-01-25T07:09:02;103709.36;;;5.31;61.78
73918;BME280;63639;52.280;5.162;2023-01-25T07:11:34;103716.99;;;5.36;61.66
73918;BME280;63639;52.280;5.162;2023-01-25T07:14:01;103714.25;;;5.12;61.94
73918;BME280;63639;52.280;5.162;2023-01-25T07:16:28;103719.00;;;5.03;62.08
73918;BME280;63639;52.280;5.162;2023-01-25T07:18:54;103714.77;;;5.05;62.59
73918;BME280;63639;52.280;5.162;2023-01-25T07:21:22;103716.26;;;4.92;62.14
73918;BME280;63639;52.280;5.162;2023-01-25T07:23:51;103716.74;;;4.98;62.43
73918;BME280;63639;52.280;5.162;2023-01-25T07:26:20;103716.37;;;4.93;62.27
73918;BME280;63639;52.280;5.162;2023-01-25T07:28:48;103717.83;;;4.90;62.31
73918;BME280;63639;52.280;5.162;2023-01-25T07:31:17;103710.19;;;5.18;61.61
73918;BME280;63639;52.280;5.162;2023-01-25T07:33:47;103707.92;;;5.29;60.79
73918;BME280;63639;52.280;5.162;2023-01-25T07:36:14;103704.65;;;5.43;60.74
73918;BME280;63639;52.280;5.162;2023-01-25T07:38:42;103703.45;;;5.41;60.51
73918;BME280;63639;52.280;5.162;2023-01-25T07:41:09;103702.74;;;5.45;60.35
73918;BME280;63639;52.280;5.162;2023-01-25T07:43:36;103701.12;;;5.54;60.22
73918;BME280;63639;52.280;5.162;2023-01-25T07:46:05;103698.06;;;5.68;59.71
73918;BME280;63639;52.280;5.162;2023-01-25T07:48:33;103698.43;;;5.72;59.89
73918;BME280;63639;52.280;5.162;2023-01-25T07:51:01;103694.86;;;5.69;59.85
73918;BME280;63639;52.280;5.162;2023-01-25T07:53:29;103691.51;;;5.61;59.65
73918;BME280;63639;52.280;5.162;2023-01-25T07:55:57;103682.82;;;5.43;60.57
73918;BME280;63639;52.280;5.162;2023-01-25T07:58:24;103676.97;;;5.57;60.57
73918;BME280;63639;52.280;5.162;2023-01-25T08:00:52;103677.17;;;5.75;60.36
73918;BME280;63639;52.280;5.162;2023-01-25T08:03:19;103671.89;;;5.85;59.81
73918;BME280;63639;52.280;5.162;2023-01-25T08:05:46;103674.03;;;5.82;60.10
73918;BME280;63639;52.280;5.162;2023-01-25T08:08:14;103675.99;;;5.73;59.42
73918;BME280;63639;52.280;5.162;2023-01-25T08:10:41;103681.18;;;5.70;60.14
73918;BME280;63639;52.280;5.162;2023-01-25T08:13:08;103677.13;;;5.56;59.58
73918;BME280;63639;52.280;5.162;2023-01-25T08:15:35;103681.80;;;5.41;60.21
73918;BME280;63639;52.280;5.162;2023-01-25T08:18:03;103686.22;;;5.45;60.34
73918;BME280;63639;52.280;5.162;2023-01-25T08:20:30;103688.33;;;5.41;60.78
73918;BME280;63639;52.280;5.162;2023-01-25T08:22:57;103689.27;;;4.97;61.05
73918;BME280;63639;52.280;5.162;2023-01-25T08:25:24;103694.31;;;4.71;62.55
73918;BME280;63639;52.280;5.162;2023-01-25T08:27:52;103688.30;;;4.92;63.27
73918;BME280;63639;52.280;5.162;2023-01-25T08:30:19;103689.66;;;5.20;62.29
73918;BME280;63639;52.280;5.162;2023-01-25T08:32:46;103688.76;;;5.46;61.23
73918;BME280;63639;52.280;5.162;2023-01-25T08:35:13;103684.28;;;5.57;59.89
73918;BME280;63639;52.280;5.162;2023-01-25T08:37:40;103682.57;;;5.27;61.27
73918;BME280;63639;52.280;5.162;2023-01-25T08:40:10;103679.36;;;5.19;60.92
73918;BME280;63639;52.280;5.162;2023-01-25T08:42:38;103674.27;;;5.22;60.81
73918;BME280;63639;52.280;5.162;2023-01-25T08:45:05;103666.59;;;5.14;61.23
73918;BME280;63639;52.280;5.162;2023-01-25T08:47:32;103656.64;;;4.82;61.65
73918;BME280;63639;52.280;5.162;2023-01-25T08:49:59;103653.13;;;4.29;63.49
73918;BME280;63639;52.280;5.162;2023-01-25T08:52:26;103654.76;;;4.12;63.97
73918;BME280;63639;52.280;5.162;2023-01-25T08:54:52;103658.22;;;4.17;65.00
73918;BME280;63639;52.280;5.162;2023-01-25T08:57:20;103659.79;;;4.46;64.86
73918;BME280;63639;52.280;5.162;2023-01-25T08:59:46;103659.94;;;4.81;64.04
73918;BME280;63639;52.280;5.162;2023-01-25T09:02:13;103655.04;;;4.86;61.78
73918;BME280;63639;52.280;5.162;2023-01-25T09:04:40;103653.30;;;4.98;62.05
73918;BME280;63639;52.280;5.162;2023-01-25T09:07:07;103656.13;;;4.92;61.55
73918;BME280;63639;52.280;5.162;2023-01-25T09:09:34;103658.79;;;4.64;61.59
73918;BME280;63639;52.280;5.162;2023-01-25T09:12:02;103659.88;;;4.52;62.87
73918;BME280;63639;52.280;5.162;2023-01-25T09:14:29;103657.71;;;4.57;62.68
73918;BME280;63639;52.280;5.162;2023-01-25T09:16:55;103654.92;;;4.59;62.42
73918;BME280;63639;52.280;5.162;2023-01-25T09:19:22;103650.79;;;4.71;62.15
73918;BME280;63639;52.280;5.162;2023-01-25T09:21:49;103653.40;;;4.37;62.86
73918;BME280;63639;52.280;5.162;2023-01-25T09:24:16;103655.03;;;3.95;64.15
73918;BME280;63639;52.280;5.162;2023-01-25T09:26:44;103650.92;;;4.10;64.96
73918;BME280;63639;52.280;5.162;2023-01-25T09:29:10;103651.28;;;3.99;64.86
73918;BME280;63639;52.280;5.162;2023-01-25T09:31:38;103655.01;;;3.63;65.89
73918;BME280;63639;52.280;5.162;2023-01-25T09:34:05;103651.86;;;3.26;67.08
73918;BME280;63639;52.280;5.162;2023-01-25T09:36:32;103648.51;;;3.35;67.75
73918;BME280;63639;52.280;5.162;2023-01-25T09:38:59;103644.90;;;3.81;67.40
73918;BME280;63639;52.280;5.162;2023-01-25T09:41:58;103638.72;;;4.24;65.61
73918;BME280;63639;52.280;5.162;2023-01-25T09:44:39;103630.25;;;4.73;63.68
73918;BME280;63639;52.280;5.162;2023-01-25T09:47:15;103629.09;;;4.25;64.11
73918;BME280;63639;52.280;5.162;2023-01-25T09:50:07;103630.19;;;4.17;64.55
73918;BME280;63639;52.280;5.162;2023-01-25T09:52:58;103632.04;;;4.38;64.37
73918;BME280;63639;52.280;5.162;2023-01-25T09:55:30;103629.12;;;4.68;64.35
73918;BME280;63639;52.280;5.162;2023-01-25T09:58:00;103623.88;;;5.00;62.79
73918;BME280;63639;52.280;5.162;2023-01-25T10:00:32;103617.21;;;4.96;61.44
73918;BME280;63639;52.280;5.162;2023-01-25T10:03:04;103602.30;;;4.53;63.26
73918;BME280;63639;52.280;5.162;2023-01-25T10:05:43;103600.60;;;4.50;64.19
73918;BME280;63639;52.280;5.162;2023-01-25T10:08:17;103604.77;;;3.80;65.72
73918;BME280;63639;52.280;5.162;2023-01-25T10:10:50;103604.79;;;3.29;67.56
73918;BME280;63639;52.280;5.162;2023-01-25T10:13:21;103601.75;;;3.48;67.14
73918;BME280;63639;52.280;5.162;2023-01-25T10:15:52;103593.78;;;3.52;67.10
73918;BME280;63639;52.280;5.162;2023-01-25T10:18:27;103584.71;;;3.75;67.35
73918;BME280;63639;52.280;5.162;2023-01-25T10:20:59;103583.08;;;4.18;65.71
73918;BME280;63639;52.280;5.162;2023-01-25T10:23:39;103579.77;;;4.27;64.92
73918;BME280;63639;52.280;5.162;2023-01-25T10:26:14;103582.06;;;4.35;64.83
73918;BME280;63639;52.280;5.162;2023-01-25T10:28:48;103580.97;;;3.91;65.98
73918;BME280;63639;52.280;5.162;2023-01-25T10:31:18;103580.44;;;3.93;66.20
73918;BME280;63639;52.280;5.162;2023-01-25T10:33:47;103581.64;;;3.67;66.37
73918;BME280;63639;52.280;5.162;2023-01-25T10:36:16;103582.01;;;3.77;67.13
73918;BME280;63639;52.280;5.162;2023-01-25T10:38:45;103581.16;;;3.98;65.88
73918;BME280;63639;52.280;5.162;2023-01-25T10:41:17;103572.11;;;4.16;64.13
73918;BME280;63639;52.280;5.162;2023-01-25T10:43:45;103566.07;;;4.23;64.81
73918;BME280;63639;52.280;5.162;2023-01-25T10:46:19;103560.74;;;4.38;64.43
73918;BME280;63639;52.280;5.162;2023-01-25T10:48:47;103555.52;;;4.40;63.89
73918;BME280;63639;52.280;5.162;2023-01-25T10:51:28;103551.40;;;4.17;63.81
73918;BME280;63639;52.280;5.162;2023-01-25T10:54:00;103547.72;;;4.03;65.14
73918;BME280;63639;52.280;5.162;2023-01-25T10:56:28;103539.45;;;4.32;64.81
73918;BME280;63639;52.280;5.162;2023-01-25T10:59:06;103535.72;;;4.57;64.17
73918;BME280;63639;52.280;5.162;2023-01-25T11:01:35;103532.17;;;4.73;62.78
73918;BME280;63639;52.280;5.162;2023-01-25T11:04:22;103522.32;;;4.50;63.09
73918;BME280;63639;52.280;5.162;2023-01-25T11:06:49;103516.12;;;4.39;63.84
73918;BME280;63639;52.280;5.162;2023-01-25T11:09:34;103510.86;;;4.49;63.56
73918;BME280;63639;52.280;5.162;2023-01-25T11:12:03;103509.60;;;4.37;64.55
73918;BME280;63639;52.280;5.162;2023-01-25T11:14:36;103505.45;;;4.15;65.26
73918;BME280;63639;52.280;5.162;2023-01-25T11:17:04;103502.72;;;4.40;65.75
73918;BME280;63639;52.280;5.162;2023-01-25T11:19:38;103498.86;;;4.74;63.99
73918;BME280;63639;52.280;5.162;2023-01-25T11:22:20;103498.45;;;5.01;63.30
73918;BME280;63639;52.280;5.162;2023-01-25T11:24:47;103496.53;;;5.00;62.05
73918;BME280;63639;52.280;5.162;2023-01-25T11:27:18;103488.01;;;4.89;62.13
73918;BME280;63639;52.280;5.162;2023-01-25T11:30:05;103485.25;;;4.62;62.70
73918;BME280;63639;52.280;5.162;2023-01-25T11:32:32;103473.98;;;4.55;64.19
73918;BME280;63639;52.280;5.162;2023-01-25T11:35:00;103466.35;;;4.50;63.76
73918;BME280;63639;52.280;5.162;2023-01-25T11:37:47;103457.80;;;4.55;62.79
73918;BME280;63639;52.280;5.162;2023-01-25T11:40:22;103448.38;;;4.41;64.11
73918;BME280;63639;52.280;5.162;2023-01-25T11:43:02;103436.89;;;4.42;63.74
73918;BME280;63639;52.280;5.162;2023-01-25T11:45:47;103427.83;;;4.56;62.67
73918;BME280;63639;52.280;5.162;2023-01-25T11:48:40;103419.18;;;4.72;62.00
73918;BME280;63639;52.280;5.162;2023-01-25T11:51:16;103413.48;;;4.59;61.99
73918;BME280;63639;52.280;5.162;2023-01-25T11:53:59;103406.13;;;3.79;64.76
73918;BME280;63639;52.280;5.162;2023-01-25T11:56:38;103398.27;;;3.17;66.87
73918;BME280;63639;52.280;5.162;2023-01-25T11:59:25;103393.63;;;3.35;67.01
73918;BME280;63639;52.280;5.162;2023-01-25T12:02:08;103388.64;;;3.77;66.50
73918;BME280;63639;52.280;5.162;2023-01-25T12:04:50;103381.54;;;4.11;64.51
73918;BME280;63639;52.280;5.162;2023-01-25T12:07:32;103374.63;;;4.06;64.11
73918;BME280;63639;52.280;5.162;2023-01-25T12:10:18;103365.47;;;3.89;65.69
73918;BME280;63639;52.280;5.162;2023-01-25T12:12:52;103357.24;;;3.96;66.33
73918;BME280;63639;52.280;5.162;2023-01-25T12:15:31;103355.73;;;3.71;66.30
73918;BME280;63639;52.280;5.162;2023-01-25T12:18:15;103349.42;;;3.75;66.49
73918;BME280;63639;52.280;5.162;2023-01-25T12:21:02;103345.20;;;3.68;66.96
73918;BME280;63639;52.280;5.162;2023-01-25T12:23:35;103341.71;;;3.53;67.44
73918;BME280;63639;52.280;5.162;2023-01-25T12:26:14;103336.34;;;3.65;67.30
73918;BME280;63639;52.280;5.162;2023-01-25T12:28:47;103329.53;;;3.77;66.43
73918;BME280;63639;52.280;5.162;2023-01-25T12:31:20;103320.59;;;3.86;66.26
73918;BME280;63639;52.280;5.162;2023-01-25T12:33:52;103315.09;;;3.91;66.03
73918;BME280;63639;52.280;5.162;2023-01-25T12:36:27;103309.71;;;3.50;67.46
73918;BME280;63639;52.280;5.162;2023-01-25T12:39:01;103313.86;;;3.64;67.32
73918;BME280;63639;52.280;5.162;2023-01-25T12:41:34;103310.37;;;3.67;66.83
73918;BME280;63639;52.280;5.162;2023-01-25T12:44:13;103304.84;;;3.54;66.76
73918;BME280;63639;52.280;5.162;2023-01-25T12:46:46;103296.14;;;3.27;68.05
73918;BME280;63639;52.280;5.162;2023-01-25T12:49:20;103290.31;;;3.24;68.07
73918;BME280;63639;52.280;5.162;2023-01-25T12:51:52;103290.95;;;3.63;67.90
73918;BME280;63639;52.280;5.162;2023-01-25T12:54:23;103284.58;;;4.06;66.80
73918;BME280;63639;52.280;5.162;2023-01-25T12:56:56;103277.76;;;4.45;64.96
73918;BME280;63639;52.280;5.162;2023-01-25T12:59:33;103275.89;;;4.60;64.07
73918;BME280;63639;52.280;5.162;2023-01-25T13:02:18;103280.67;;;4.18;64.86
73918;BME280;63639;52.280;5.162;2023-01-25T13:04:58;103281.88;;;3.73;66.36
73918;BME280;63639;52.280;5.162;2023-01-25T13:07:33;103279.07;;;3.28;68.22
73918;BME280;63639;52.280;5.162;2023-01-25T13:10:07;103273.40;;;3.01;69.00
73918;BME280;63639;52.280;5.162;2023-01-25T13:12:57;103271.72;;;3.09;69.14